Time;durP1;ratioP1;P1;durP2;ratioP2;P2;SDS_P1;SDS_P2;PMS_P1;PMS_P2;Temp;Humidity;BMP_temperature;BMP_pressure;BME280_temperature;BME280_humidity;BME280_pressure;Samples;Min_cycle;Max_cycle;Signal;HPM_P1;HPM_P2
2021/01/25 00:01:07;;;;;;;14.10;9.77;;;1.50;99.90;;;;;;6240441;23;20012;-85
2021/01/25 00:03:33;;;;;;;15.13;10.30;;;1.50;99.90;;;;;;6214199;23;20026;-85
2021/01/25 00:05:59;;;;;;;20.70;10.52;;;1.50;99.90;;;;;;6213590;23;20095;-87
2021/01/25 00:08:24;;;;;;;14.10;9.60;;;1.50;99.90;;;;;;6213238;23;20040;-86
2021/01/25 00:10:50;;;;;;;16.23;9.88;;;1.50;99.90;;;;;;6240659;23;20004;-86
2021/01/25 00:13:16;;;;;;;13.80;9.40;;;1.50;99.90;;;;;;6240014;23;20003;-85
2021/01/25 00:15:41;;;;;;;13.45;9.25;;;1.50;99.90;;;;;;6239974;23;20339;-86
2021/01/25 00:18:07;;;;;;;14.80;9.38;;;1.50;99.90;;;;;;6240207;23;20007;-85
2021/01/25 00:20:32;;;;;;;14.10;9.18;;;1.50;99.90;;;;;;6212755;23;20015;-86
2021/01/25 00:22:58;;;;;;;14.13;9.02;;;1.50;99.90;;;;;;6213454;23;20004;-86
2021/01/25 00:25:24;;;;;;;12.63;8.73;;;1.50;99.90;;;;;;6212712;23;20046;-86
2021/01/25 00:27:49;;;;;;;13.73;9.52;;;1.50;99.90;;;;;;6217019;23;20088;-87
2021/01/25 00:30:17;;;;;;;12.43;7.80;;;1.50;99.90;;;;;;6244833;23;20011;-86
2021/01/25 00:32:44;;;;;;;12.10;8.45;;;1.50;99.90;;;;;;6218237;23;20083;-86
2021/01/25 00:35:10;;;;;;;12.50;7.97;;;1.50;99.90;;;;;;6218245;23;20015;-85
2021/01/25 00:37:36;;;;;;;12.85;8.23;;;1.50;99.90;;;;;;6245509;23;20006;-85
2021/01/25 00:40:02;;;;;;;14.38;8.30;;;1.60;99.90;;;;;;6219096;23;20091;-85
2021/01/25 00:42:28;;;;;;;14.77;8.30;;;1.60;99.90;;;;;;6219219;23;20012;-86
2021/01/25 00:44:53;;;;;;;12.63;8.10;;;1.60;99.90;;;;;;6246209;23;20110;-85
2021/01/25 00:47:19;;;;;;;12.68;8.60;;;1.60;99.90;;;;;;6218746;23;20051;-85
2021/01/25 00:49:44;;;;;;;14.02;8.80;;;1.60;99.90;;;;;;6219111;23;20007;-85
2021/01/25 00:52:10;;;;;;;13.55;8.50;;;1.60;99.90;;;;;;6219087;23;20000;-86
2021/01/25 00:54:35;;;;;;;11.65;8.00;;;1.60;99.90;;;;;;6219161;23;20007;-86
2021/01/25 00:57:01;;;;;;;11.13;7.85;;;1.60;99.90;;;;;;6218750;23;20050;-85
2021/01/25 00:59:27;;;;;;;12.32;8.30;;;1.60;99.90;;;;;;6245699;23;20011;-85
2021/01/25 01:01:52;;;;;;;14.40;9.35;;;1.70;99.90;;;;;;6218581;23;20378;-86
2021/01/25 01:04:18;;;;;;;13.48;9.07;;;1.70;99.90;;;;;;6245656;23;20103;-86
2021/01/25 01:06:43;;;;;;;13.88;9.10;;;1.70;99.90;;;;;;6246282;23;20019;-87
2021/01/25 01:09:09;;;;;;;13.20;8.50;;;1.70;99.90;;;;;;6217917;23;20008;-85
2021/01/25 01:11:35;;;;;;;14.15;9.32;;;1.70;99.90;;;;;;6245109;23;20014;-86
2021/01/25 01:14:01;;;;;;;12.65;8.55;;;1.70;99.90;;;;;;6245041;23;20042;-86
2021/01/25 01:16:26;;;;;;;17.17;9.95;;;1.70;99.90;;;;;;6217921;23;20017;-86
2021/01/25 01:18:52;;;;;;;14.13;9.38;;;1.70;99.90;;;;;;6245363;23;20035;-85
2021/01/25 01:21:18;;;;;;;14.07;9.77;;;1.60;99.90;;;;;;6219842;23;20492;-86
2021/01/25 01:23:43;;;;;;;17.13;10.20;;;1.60;99.90;;;;;;6223630;23;20443;-86
2021/01/25 01:26:09;;;;;;;13.25;9.23;;;1.60;99.90;;;;;;6223021;23;20087;-87
2021/01/25 01:28:34;;;;;;;15.02;9.43;;;1.60;99.90;;;;;;6223354;23;20016;-86
2021/01/25 01:31:00;;;;;;;15.52;10.43;;;1.60;99.90;;;;;;6222004;23;20087;-86
2021/01/25 01:33:25;;;;;;;18.05;10.88;;;1.60;99.90;;;;;;6221669;23;20007;-87
2021/01/25 01:35:51;;;;;;;16.70;10.73;;;1.60;99.90;;;;;;6247974;23;20019;-85
2021/01/25 01:38:16;;;;;;;21.15;12.60;;;1.60;99.90;;;;;;6221375;23;20636;-86
2021/01/25 01:40:42;;;;;;;20.58;13.52;;;1.60;99.90;;;;;;6221455;23;20012;-85
2021/01/25 01:43:08;;;;;;;23.75;14.90;;;1.60;99.90;;;;;;6248304;23;20032;-85
2021/01/25 01:45:33;;;;;;;20.95;13.82;;;1.50;99.90;;;;;;6221347;23;20000;-86
2021/01/25 01:47:59;;;;;;;20.88;14.43;;;1.50;99.90;;;;;;6247962;23;20030;-85
2021/01/25 01:50:26;;;;;;;20.08;13.25;;;1.50;99.90;;;;;;6220692;23;20007;-86
2021/01/25 01:52:52;;;;;;;20.05;13.98;;;1.50;99.90;;;;;;6247561;23;20000;-85
2021/01/25 01:55:18;;;;;;;19.88;13.73;;;1.50;99.90;;;;;;6247429;23;20015;-85
2021/01/25 01:57:49;;;;;;;20.17;13.65;;;1.50;99.90;;;;;;6220696;23;20326;-85
2021/01/25 02:00:15;;;;;;;19.33;13.45;;;1.50;99.90;;;;;;6247956;23;20031;-85
2021/01/25 02:02:41;;;;;;;22.48;15.27;;;1.50;99.90;;;;;;6247981;23;20084;-85
2021/01/25 02:05:08;;;;;;;23.02;14.60;;;1.50;99.90;;;;;;6247637;23;20379;-86
2021/01/25 02:07:34;;;;;;;21.15;14.13;;;1.50;99.90;;;;;;6247838;23;20034;-86
2021/01/25 02:10:02;;;;;;;22.38;14.25;;;1.50;99.90;;;;;;6247846;23;20422;-86
2021/01/25 02:12:28;;;;;;;19.30;13.90;;;1.50;99.90;;;;;;6220840;23;20008;-86
2021/01/25 02:14:57;;;;;;;18.80;13.68;;;1.50;99.90;;;;;;6247747;23;20012;-87
2021/01/25 02:17:22;;;;;;;19.27;13.25;;;1.50;99.90;;;;;;6247660;23;20012;-86
2021/01/25 02:20:06;;;;;;;20.13;12.68;;;1.50;99.90;;;;;;6220881;23;20015;-86
2021/01/25 02:22:35;;;;;;;21.23;13.35;;;1.50;99.90;;;;;;6221392;23;20422;-85
2021/01/25 02:25:41;;;;;;;21.30;14.68;;;1.50;99.90;;;;;;6248199;23;20130;-86
2021/01/25 02:28:07;;;;;;;22.30;14.63;;;1.50;99.90;;;;;;6155730;23;20024;-86
2021/01/25 02:30:33;;;;;;;23.23;15.85;;;1.50;99.90;;;;;;6247827;23;20433;-87
2021/01/25 02:33:00;;;;;;;22.35;15.27;;;1.50;99.90;;;;;;6219898;23;20007;-86
2021/01/25 02:35:28;;;;;;;23.17;15.23;;;1.40;99.90;;;;;;6219541;23;20016;-85
2021/01/25 02:37:55;;;;;;;23.35;15.50;;;1.50;99.90;;;;;;6220284;23;20031;-86
2021/01/25 02:40:22;;;;;;;18.75;13.35;;;1.40;99.90;;;;;;6246966;23;20012;-85
2021/01/25 02:42:53;;;;;;;21.67;13.95;;;1.50;99.90;;;;;;6220475;23;20023;-86
2021/01/25 02:45:19;;;;;;;20.85;14.60;;;1.50;99.90;;;;;;6220369;23;20443;-86
2021/01/25 02:47:46;;;;;;;20.45;14.40;;;1.40;99.90;;;;;;6220379;23;20027;-87
2021/01/25 02:50:11;;;;;;;21.85;14.63;;;1.40;99.90;;;;;;6246717;23;20000;-87
2021/01/25 02:52:37;;;;;;;18.40;12.95;;;1.40;99.90;;;;;;6247466;23;20057;-87
2021/01/25 02:55:03;;;;;;;18.60;12.88;;;1.50;99.90;;;;;;6220461;23;20288;-86
2021/01/25 02:57:30;;;;;;;20.33;13.77;;;1.50;99.90;;;;;;6247512;23;20011;-87
2021/01/25 02:59:57;;;;;;;21.27;13.77;;;1.50;99.90;;;;;;6220024;23;20445;-85
2021/01/25 03:02:23;;;;;;;20.52;13.90;;;1.40;99.90;;;;;;6219526;23;20066;-86
2021/01/25 03:04:48;;;;;;;19.88;13.25;;;1.40;99.90;;;;;;6219857;23;20094;-86
2021/01/25 03:07:14;;;;;;;19.00;13.07;;;1.40;99.90;;;;;;6220088;23;20028;-87
2021/01/25 03:09:40;;;;;;;21.70;14.98;;;1.40;99.90;;;;;;6220240;23;20004;-87
2021/01/25 03:12:06;;;;;;;19.65;14.07;;;1.40;99.90;;;;;;6220632;23;20339;-87
2021/01/25 03:14:32;;;;;;;21.50;14.57;;;1.30;99.90;;;;;;6219772;23;20004;-85
2021/01/25 03:16:58;;;;;;;19.70;13.73;;;1.30;99.90;;;;;;6220766;23;20008;-86
2021/01/25 03:19:24;;;;;;;22.42;14.13;;;1.30;99.90;;;;;;6221280;23;20056;-86
2021/01/25 03:21:52;;;;;;;20.02;13.15;;;1.30;99.90;;;;;;6221178;23;20005;-88
2021/01/25 03:24:18;;;;;;;20.17;12.93;;;1.30;99.90;;;;;;6220349;23;20388;-87
2021/01/25 03:26:44;;;;;;;21.20;12.85;;;1.20;99.90;;;;;;6220911;23;20011;-89
2021/01/25 03:29:10;;;;;;;23.63;14.05;;;1.20;99.90;;;;;;6220642;23;20331;-88
2021/01/25 03:31:36;;;;;;;17.38;12.65;;;1.20;99.90;;;;;;6247082;23;20054;-86
2021/01/25 03:34:03;;;;;;;20.75;14.00;;;1.20;99.90;;;;;;6220238;23;20003;-85
2021/01/25 03:36:29;;;;;;;20.35;13.88;;;1.20;99.90;;;;;;6221042;23;20012;-86
2021/01/25 03:38:55;;;;;;;22.15;15.20;;;1.20;99.90;;;;;;6220179;23;20004;-86
2021/01/25 03:41:21;;;;;;;20.42;14.93;;;1.20;99.90;;;;;;6220226;23;20000;-86
2021/01/25 03:43:46;;;;;;;19.88;13.63;;;1.10;99.90;;;;;;6220511;23;20015;-87
2021/01/25 03:46:12;;;;;;;22.23;14.55;;;1.10;99.90;;;;;;6246523;23;20054;-86
2021/01/25 03:48:38;;;;;;;21.02;14.80;;;1.10;99.90;;;;;;6247125;23;20023;-86
2021/01/25 03:51:04;;;;;;;22.75;15.30;;;1.10;99.90;;;;;;6219863;23;20000;-86
2021/01/25 03:53:29;;;;;;;24.75;14.95;;;1.10;99.90;;;;;;6246998;23;20035;-87
2021/01/25 03:55:55;;;;;;;24.08;16.63;;;1.10;99.90;;;;;;6219814;23;20373;-86
2021/01/25 03:58:20;;;;;;;24.20;17.05;;;1.10;99.90;;;;;;6220359;23;20075;-87
2021/01/25 04:00:46;;;;;;;25.40;17.10;;;1.10;99.90;;;;;;6220154;23;20443;-86
2021/01/25 04:03:13;;;;;;;25.90;16.42;;;1.10;99.90;;;;;;6219932;23;20004;-85
2021/01/25 04:05:38;;;;;;;22.73;15.38;;;1.10;99.90;;;;;;6220146;23;20011;-86
2021/01/25 04:08:04;;;;;;;26.25;17.55;;;1.10;99.90;;;;;;6246729;23;19996;-86
2021/01/25 04:10:30;;;;;;;27.85;18.35;;;1.20;99.90;;;;;;6220090;23;20324;-86
2021/01/25 04:12:55;;;;;;;26.65;17.02;;;1.10;99.90;;;;;;6219734;23;20331;-85
2021/01/25 04:15:21;;;;;;;25.00;15.90;;;1.20;99.90;;;;;;6220477;23;20094;-86
2021/01/25 04:17:46;;;;;;;22.40;16.20;;;1.20;99.90;;;;;;6220032;23;20023;-86
2021/01/25 04:20:12;;;;;;;21.35;13.95;;;1.20;99.90;;;;;;6246662;23;20490;-86
2021/01/25 04:22:38;;;;;;;20.58;13.48;;;1.20;99.90;;;;;;6247113;23;20000;-86
2021/01/25 04:25:05;;;;;;;21.42;14.45;;;1.20;99.90;;;;;;6219899;23;20572;-86
2021/01/25 04:27:31;;;;;;;22.98;14.70;;;1.10;99.90;;;;;;6218866;23;20326;-86
2021/01/25 04:29:56;;;;;;;22.02;14.75;;;1.10;99.90;;;;;;6245961;23;20008;-86
2021/01/25 04:32:23;;;;;;;18.70;13.25;;;1.10;99.90;;;;;;6219162;23;20426;-85
2021/01/25 04:34:49;;;;;;;21.02;14.13;;;1.00;99.90;;;;;;6219075;23;20004;-86
2021/01/25 04:37:15;;;;;;;21.50;13.77;;;0.90;99.90;;;;;;6219481;23;20083;-86
2021/01/25 04:39:40;;;;;;;20.08;12.75;;;0.80;99.90;;;;;;6245930;23;20011;-86
2021/01/25 04:42:06;;;;;;;19.48;12.57;;;0.80;99.90;;;;;;6219367;23;20012;-86
2021/01/25 04:44:32;;;;;;;17.67;12.48;;;0.70;99.90;;;;;;6245868;23;20007;-86
2021/01/25 04:47:01;;;;;;;21.38;12.68;;;0.70;99.90;;;;;;6219412;23;20000;-85
2021/01/25 04:49:27;;;;;;;18.38;12.32;;;0.60;99.90;;;;;;6219496;23;20004;-87
2021/01/25 04:51:54;;;;;;;16.10;11.77;;;0.60;99.90;;;;;;6246559;23;19996;-86
2021/01/25 04:54:20;;;;;;;18.35;12.93;;;0.50;99.90;;;;;;6246683;23;20303;-86
2021/01/25 04:56:46;;;;;;;18.73;12.77;;;0.50;99.90;;;;;;6246296;23;20007;-85
2021/01/25 04:59:13;;;;;;;20.83;14.65;;;0.40;99.90;;;;;;6219380;23;20429;-85
2021/01/25 05:01:39;;;;;;;22.08;13.75;;;0.40;99.90;;;;;;6219414;23;20012;-86
2021/01/25 05:04:04;;;;;;;21.55;14.38;;;0.30;99.90;;;;;;6245994;23;20437;-86
2021/01/25 05:06:30;;;;;;;18.90;13.60;;;0.30;99.90;;;;;;6246555;23;20024;-85
2021/01/25 05:08:56;;;;;;;19.83;13.07;;;0.20;99.90;;;;;;6220362;23;20007;-86
2021/01/25 05:11:22;;;;;;;23.38;14.23;;;0.20;99.90;;;;;;6246582;23;20039;-86
2021/01/25 05:13:48;;;;;;;17.80;12.32;;;0.10;99.90;;;;;;6247115;23;20005;-86
2021/01/25 05:16:14;;;;;;;18.92;13.40;;;0.10;99.90;;;;;;6220068;23;20023;-85
2021/01/25 05:18:40;;;;;;;20.95;13.40;;;0.10;99.90;;;;;;6220052;23;20004;-86
2021/01/25 05:21:05;;;;;;;21.08;14.32;;;0.10;99.90;;;;;;6219653;23;20032;-86
2021/01/25 05:23:37;;;;;;;19.92;13.13;;;0.00;99.90;;;;;;6220252;23;19996;-86
2021/01/25 05:26:10;;;;;;;18.88;13.50;;;0.00;99.90;;;;;;6220577;23;20012;-87
2021/01/25 05:28:43;;;;;;;18.63;13.00;;;-0.10;99.90;;;;;;6219763;23;20047;-84
2021/01/25 05:31:23;;;;;;;19.80;12.15;;;-0.10;99.90;;;;;;6219183;23;20243;-86
2021/01/25 05:33:50;;;;;;;17.30;11.32;;;-0.10;99.90;;;;;;6245938;23;20000;-86
2021/01/25 05:36:25;;;;;;;17.77;12.07;;;-0.10;99.90;;;;;;6245887;23;20336;-85
2021/01/25 05:38:52;;;;;;;23.35;14.02;;;-0.10;99.90;;;;;;6219241;23;20008;-86
2021/01/25 05:41:19;;;;;;;20.67;14.23;;;-0.10;99.90;;;;;;6220057;23;20010;-85
2021/01/25 05:43:45;;;;;;;21.75;14.30;;;-0.20;99.90;;;;;;6245945;23;20004;-85
2021/01/25 05:46:16;;;;;;;20.85;14.50;;;-0.20;99.90;;;;;;6245586;23;20004;-86
2021/01/25 05:48:42;;;;;;;21.42;14.95;;;-0.20;99.90;;;;;;6245158;23;20004;-85
2021/01/25 05:51:17;;;;;;;22.42;15.82;;;-0.30;99.90;;;;;;6245473;23;20075;-86
2021/01/25 05:53:45;;;;;;;21.88;15.20;;;-0.30;99.90;;;;;;6218897;23;20054;-86
2021/01/25 05:56:12;;;;;;;23.88;16.55;;;-0.30;99.90;;;;;;6218749;23;20012;-86
2021/01/25 05:58:39;;;;;;;22.77;15.60;;;-0.30;99.90;;;;;;6245820;23;20625;-85
2021/01/25 06:01:05;;;;;;;21.10;14.80;;;-0.30;99.90;;;;;;6244098;23;20000;-87
2021/01/25 06:03:38;;;;;;;21.02;13.98;;;-0.30;99.90;;;;;;6218003;23;20335;-88
2021/01/25 06:06:17;;;;;;;23.48;14.93;;;-0.30;99.90;;;;;;6193636;23;20422;-88
2021/01/25 06:08:50;;;;;;;23.75;15.68;;;-0.30;99.90;;;;;;6218560;23;20004;-86
2021/01/25 06:11:27;;;;;;;21.98;15.82;;;-0.20;99.90;;;;;;6219529;23;20012;-87
2021/01/25 06:14:00;;;;;;;23.15;15.68;;;-0.20;99.90;;;;;;6218821;23;20012;-88
2021/01/25 06:16:28;;;;;;;;;;;-0.30;99.90;;;;;;6219708;23;20465;-84
2021/01/25 06:19:07;;;;;;;24.08;15.57;;;-0.30;99.90;;;;;;6218471;23;19935;-87
2021/01/25 06:21:34;;;;;;;28.92;18.85;;;-0.20;99.90;;;;;;6219818;23;19996;-87
2021/01/25 06:24:02;;;;;;;30.05;20.58;;;-0.30;99.90;;;;;;6247631;23;20577;-86
2021/01/25 06:26:30;;;;;;;28.88;20.15;;;-0.30;99.90;;;;;;6220879;23;20000;-86
2021/01/25 06:29:08;;;;;;;28.75;19.38;;;-0.30;99.90;;;;;;6221352;23;20012;-86
2021/01/25 06:31:35;;;;;;;29.52;20.27;;;-0.30;99.90;;;;;;6220927;23;20004;-87
2021/01/25 06:34:04;;;;;;;28.02;21.00;;;-0.30;99.90;;;;;;6220927;23;20000;-86
2021/01/25 06:36:31;;;;;;;27.92;19.33;;;-0.30;99.90;;;;;;6247587;23;20120;-86
2021/01/25 06:38:58;;;;;;;30.10;19.10;;;-0.30;99.90;;;;;;6221004;23;20014;-86
2021/01/25 06:41:24;;;;;;;29.15;19.30;;;-0.30;99.90;;;;;;6221280;23;20066;-88
2021/01/25 06:43:50;;;;;;;27.38;18.15;;;-0.30;99.90;;;;;;6248025;23;19996;-86
2021/01/25 06:46:21;;;;;;;27.77;18.77;;;-0.30;99.90;;;;;;6247654;23;20486;-86
2021/01/25 06:48:52;;;;;;;23.35;16.30;;;-0.40;99.90;;;;;;6220389;23;20020;-84
2021/01/25 06:51:20;;;;;;;25.63;16.95;;;-0.50;99.90;;;;;;6220624;23;19996;-86
2021/01/25 06:53:49;;;;;;;24.45;16.17;;;-0.50;99.90;;;;;;6247376;23;20058;-86
2021/01/25 06:56:15;;;;;;;23.45;15.75;;;-0.50;99.90;;;;;;6247059;23;20015;-86
2021/01/25 06:58:46;;;;;;;25.23;15.85;;;-0.50;99.90;;;;;;6220746;23;20000;-86
2021/01/25 07:01:12;;;;;;;24.10;16.15;;;-0.50;99.90;;;;;;6220285;23;20011;-87
2021/01/25 07:04:10;;;;;;;23.63;16.25;;;-0.60;99.90;;;;;;6220379;23;20004;-87
2021/01/25 07:06:41;;;;;;;25.83;16.50;;;-0.60;99.90;;;;;;6220361;23;20004;-88
2021/01/25 07:09:07;;;;;;;27.10;18.52;;;-0.60;99.90;;;;;;6221049;23;20012;-87
2021/01/25 07:11:35;;;;;;;26.05;17.45;;;-0.60;99.90;;;;;;6222486;23;20051;-86
2021/01/25 07:14:01;;;;;;;23.35;16.67;;;-0.60;99.90;;;;;;6251637;23;20000;-87
2021/01/25 07:16:27;;;;;;;24.40;16.90;;;-0.70;99.90;;;;;;6226425;23;20100;-87
2021/01/25 07:18:54;;;;;;;23.08;16.10;;;-0.70;99.90;;;;;;6225547;23;20415;-87
2021/01/25 07:21:21;;;;;;;22.77;15.23;;;-0.70;99.90;;;;;;6222119;23;20087;-86
2021/01/25 07:23:48;;;;;;;23.45;16.05;;;-0.70;99.90;;;;;;6223704;23;19996;-87
2021/01/25 07:26:16;;;;;;;23.55;16.27;;;-0.70;99.90;;;;;;6220071;23;20001;-87
2021/01/25 07:28:43;;;;;;;26.30;16.73;;;-0.70;99.90;;;;;;6221265;23;20035;-86
2021/01/25 07:31:11;;;;;;;22.95;16.25;;;-0.70;99.90;;;;;;6247131;23;20004;-88
2021/01/25 07:33:37;;;;;;;26.33;17.98;;;-0.60;99.90;;;;;;6220393;23;20000;-87
2021/01/25 07:36:04;;;;;;;25.00;18.08;;;-0.70;99.90;;;;;;6220068;23;20019;-87
2021/01/25 07:38:30;;;;;;;27.25;18.55;;;-0.70;99.90;;;;;;6221071;23;20005;-90
2021/01/25 07:40:57;;;;;;;31.77;20.33;;;-0.60;99.90;;;;;;6220505;23;20012;-88
2021/01/25 07:43:29;;;;;;;26.75;19.30;;;-0.70;99.90;;;;;;6220933;23;19996;-87
2021/01/25 07:46:08;;;;;;;29.80;20.23;;;-0.60;99.90;;;;;;6220938;23;20336;-87
2021/01/25 07:48:35;;;;;;;28.23;18.80;;;-0.60;99.90;;;;;;6220090;23;20008;-86
2021/01/25 07:51:00;;;;;;;29.13;18.73;;;-0.60;99.90;;;;;;6220573;23;20334;-86
2021/01/25 07:53:35;;;;;;;25.52;17.33;;;-0.60;99.90;;;;;;6247439;23;20000;-86
2021/01/25 07:56:01;;;;;;;24.67;16.98;;;-0.60;99.90;;;;;;6220690;23;20011;-88
2021/01/25 07:58:27;;;;;;;24.13;16.73;;;-0.60;99.90;;;;;;6221416;23;19996;-87
2021/01/25 08:00:52;;;;;;;27.42;17.38;;;-0.60;99.90;;;;;;6220794;23;20032;-89
2021/01/25 08:03:31;;;;;;;24.77;16.08;;;-0.60;99.90;;;;;;6220543;23;20053;-87
2021/01/25 08:06:04;;;;;;;21.90;15.77;;;-0.60;99.90;;;;;;6220168;23;20008;-89
2021/01/25 08:08:32;;;;;;;23.02;15.63;;;-0.60;99.90;;;;;;6221257;23;20058;-88
2021/01/25 08:10:58;;;;;;;25.13;15.40;;;-0.60;99.90;;;;;;6217837;23;20072;-86
2021/01/25 08:13:27;;;;;;;26.13;16.48;;;-0.60;99.90;;;;;;6244559;23;20004;-85
2021/01/25 08:16:04;;;;;;;23.88;16.65;;;-0.60;99.90;;;;;;6217460;23;20039;-86
2021/01/25 08:18:50;;;;;;;24.55;16.42;;;-0.60;99.90;;;;;;6217693;23;20015;-85
2021/01/25 08:21:26;;;;;;;27.67;17.73;;;-0.60;99.90;;;;;;6218525;23;20004;-87
2021/01/25 08:23:54;;;;;;;25.05;16.65;;;-0.50;99.90;;;;;;6213375;23;20004;-88
2021/01/25 08:26:26;;;;;;;28.05;16.65;;;-0.50;99.90;;;;;;6220268;23;20004;-89
2021/01/25 08:29:03;;;;;;;21.55;15.48;;;-0.50;99.90;;;;;;6214163;23;20016;-89
2021/01/25 08:31:40;;;;;;;24.17;14.75;;;-0.50;99.90;;;;;;6215217;23;20040;-88
2021/01/25 08:34:16;;;;;;;28.30;17.63;;;-0.40;99.90;;;;;;6214279;23;20025;-86
2021/01/25 08:36:42;;;;;;;31.02;20.05;;;-0.40;99.90;;;;;;6216071;23;20052;-88
2021/01/25 08:39:16;;;;;;;34.65;22.40;;;-0.30;99.90;;;;;;6215765;23;20260;-88
2021/01/25 08:41:55;;;;;;;32.47;21.13;;;-0.30;99.90;;;;;;6214034;23;20402;-87
2021/01/25 08:44:23;;;;;;;33.00;21.50;;;-0.20;99.90;;;;;;6213437;23;20428;-88
2021/01/25 08:46:49;;;;;;;31.17;20.60;;;-0.20;99.90;;;;;;6213666;23;20009;-88
2021/01/25 08:49:22;;;;;;;29.80;20.88;;;-0.20;99.90;;;;;;6215115;23;20450;-87
2021/01/25 08:52:00;;;;;;;30.55;19.67;;;-0.10;99.90;;;;;;6214419;23;20058;-88
2021/01/25 08:54:46;;;;;;;27.50;18.13;;;0.00;99.90;;;;;;6213938;23;20084;-87
2021/01/25 08:57:23;;;;;;;26.65;16.48;;;0.00;99.90;;;;;;6212609;23;20044;-85
2021/01/25 08:59:48;;;;;;;25.23;16.67;;;0.10;99.90;;;;;;6212233;23;20112;-86
2021/01/25 09:02:21;;;;;;;24.85;16.38;;;0.20;99.90;;;;;;6212613;23;20039;-86
2021/01/25 09:04:51;;;;;;;26.88;16.48;;;0.20;99.90;;;;;;6213070;23;20008;-86
2021/01/25 09:07:20;;;;;;;26.48;16.52;;;0.30;99.90;;;;;;6210623;23;20471;-85
2021/01/25 09:09:47;;;;;;;25.40;15.48;;;0.40;99.90;;;;;;6212500;23;20015;-86
2021/01/25 09:12:13;;;;;;;27.38;16.83;;;0.50;99.90;;;;;;6212596;23;20032;-87
2021/01/25 09:14:39;;;;;;;27.45;18.38;;;0.70;99.90;;;;;;6212776;23;20039;-87
2021/01/25 09:17:07;;;;;;;29.90;20.25;;;1.60;99.90;;;;;;6212980;23;19997;-87
2021/01/25 09:19:33;;;;;;;29.80;20.88;;;3.10;99.90;;;;;;6212884;23;20036;-87
2021/01/25 09:21:58;;;;;;;27.02;19.00;;;4.60;99.90;;;;;;6212739;23;20493;-90
2021/01/25 09:24:24;;;;;;;24.50;17.65;;;5.80;99.90;;;;;;6214117;23;20028;-91
2021/01/25 09:26:49;;;;;;;25.58;18.33;;;6.90;99.90;;;;;;6215025;23;20009;-89
2021/01/25 09:29:15;;;;;;;23.02;18.25;;;7.70;99.90;;;;;;6213924;23;20166;-89
2021/01/25 09:31:41;;;;;;;25.08;18.80;;;8.30;99.90;;;;;;6213891;23;20312;-90
2021/01/25 09:34:06;;;;;;;24.23;17.23;;;8.80;99.90;;;;;;6213840;23;20078;-88
2021/01/25 09:36:33;;;;;;;22.85;17.15;;;9.20;99.90;;;;;;6214609;23;20518;-89
2021/01/25 09:38:59;;;;;;;20.25;15.82;;;9.70;99.90;;;;;;6214811;23;20023;-89
2021/01/25 09:41:24;;;;;;;20.63;16.40;;;10.20;99.90;;;;;;6213121;23;20028;-87
2021/01/25 09:43:50;;;;;;;20.50;16.02;;;10.60;98.60;;;;;;6214134;23;20027;-88
2021/01/25 09:46:15;;;;;;;20.42;14.70;;;10.80;98.90;;;;;;6214160;23;20347;-88
2021/01/25 09:48:41;;;;;;;21.13;15.50;;;11.20;98.10;;;;;;6214032;23;20032;-87
2021/01/25 09:51:06;;;;;;;21.80;15.55;;;11.50;97.50;;;;;;6213552;23;20005;-88
2021/01/25 09:53:32;;;;;;;19.10;14.73;;;11.70;97.00;;;;;;6212950;23;20011;-86
2021/01/25 09:55:58;;;;;;;17.63;14.90;;;12.00;96.00;;;;;;6215152;23;20095;-88
2021/01/25 09:58:24;;;;;;;18.15;13.65;;;12.10;95.60;;;;;;6212505;23;20089;-87
2021/01/25 10:00:51;;;;;;;18.10;14.32;;;12.30;95.00;;;;;;6210378;23;20071;-87
2021/01/25 10:03:17;;;;;;;17.58;14.13;;;12.50;94.90;;;;;;6213094;23;20396;-87
2021/01/25 10:05:43;;;;;;;20.10;15.27;;;12.70;93.70;;;;;;6212637;23;20333;-87
2021/01/25 10:08:09;;;;;;;21.52;13.52;;;12.70;91.50;;;;;;6214451;23;20000;-88
2021/01/25 10:10:34;;;;;;;16.92;12.93;;;12.40;91.90;;;;;;6212549;23;20531;-87
2021/01/25 10:13:00;;;;;;;16.52;12.25;;;12.70;92.20;;;;;;6212017;23;20019;-88
2021/01/25 10:15:26;;;;;;;17.05;12.30;;;13.10;91.90;;;;;;6211714;23;20384;-87
2021/01/25 10:17:51;;;;;;;17.25;12.65;;;13.40;90.10;;;;;;6211397;23;20029;-86
2021/01/25 10:20:17;;;;;;;17.60;12.35;;;13.60;89.90;;;;;;6213562;23;20000;-88
2021/01/25 10:22:44;;;;;;;16.20;11.95;;;13.70;89.70;;;;;;6212191;23;19997;-88
2021/01/25 10:25:11;;;;;;;15.05;10.95;;;14.00;88.90;;;;;;6211684;23;20005;-87
2021/01/25 10:27:37;;;;;;;13.13;10.75;;;14.20;85.90;;;;;;6212639;23;20013;-88
2021/01/25 10:30:06;;;;;;;15.52;12.43;;;14.40;86.60;;;;;;6213672;23;20000;-87
2021/01/25 10:32:31;;;;;;;14.98;11.68;;;14.60;83.60;;;;;;6213399;23;20032;-89
2021/01/25 10:34:58;;;;;;;15.55;11.90;;;14.50;81.90;;;;;;6213194;23;20104;-88
2021/01/25 10:37:25;;;;;;;14.45;11.15;;;14.50;80.20;;;;;;6213015;23;20011;-90
2021/01/25 10:39:50;;;;;;;16.48;11.73;;;14.40;80.40;;;;;;6215160;23;20039;-86
2021/01/25 10:42:16;;;;;;;14.10;10.43;;;14.70;78.80;;;;;;6211677;23;20016;-86
2021/01/25 10:44:42;;;;;;;14.23;10.18;;;14.70;79.20;;;;;;6213802;23;20092;-86
2021/01/25 10:47:07;;;;;;;13.05;9.77;;;15.10;79.00;;;;;;6214130;23;20000;-87
2021/01/25 10:49:33;;;;;;;13.57;10.07;;;15.40;78.50;;;;;;6213521;23;20001;-85
2021/01/25 10:51:59;;;;;;;14.25;10.48;;;15.50;77.70;;;;;;6211570;23;20008;-86
2021/01/25 10:54:25;;;;;;;13.00;9.77;;;15.40;76.40;;;;;;6211221;23;20489;-89
2021/01/25 10:56:51;;;;;;;15.27;10.48;;;15.20;74.70;;;;;;6212040;23;20005;-85
2021/01/25 10:59:17;;;;;;;11.70;10.00;;;15.10;75.20;;;;;;6211055;23;20051;-87
2021/01/25 11:01:43;;;;;;;14.60;9.95;;;15.00;75.10;;;;;;6210725;23;20343;-87
2021/01/25 11:04:08;;;;;;;13.93;10.40;;;15.00;76.80;;;;;;6210922;23;20362;-86
2021/01/25 11:06:34;;;;;;;15.07;10.45;;;15.00;75.50;;;;;;6212028;23;20825;-86
2021/01/25 11:09:00;;;;;;;13.65;10.77;;;15.00;75.60;;;;;;6209982;23;20017;-85
2021/01/25 11:11:25;;;;;;;12.13;9.88;;;15.10;72.80;;;;;;6210383;23;20075;-87
2021/01/25 11:13:51;;;;;;;10.88;9.00;;;15.00;73.40;;;;;;6210736;23;20088;-87
2021/01/25 11:16:16;;;;;;;14.30;10.23;;;15.10;75.10;;;;;;6211063;23;20020;-87
2021/01/25 11:18:42;;;;;;;12.52;9.82;;;15.40;74.70;;;;;;6212359;23;20000;-87
2021/01/25 11:21:08;;;;;;;14.68;10.77;;;15.50;73.60;;;;;;6213273;23;20360;-88
2021/01/25 11:23:33;;;;;;;11.82;9.52;;;15.60;72.90;;;;;;6212787;23;20023;-87
2021/01/25 11:25:59;;;;;;;11.90;8.55;;;15.80;72.80;;;;;;6213016;23;20001;-87
2021/01/25 11:28:25;;;;;;;11.25;7.45;;;16.00;70.50;;;;;;6212676;23;20020;-88
2021/01/25 11:30:50;;;;;;;12.15;9.30;;;16.10;71.20;;;;;;6215119;23;20047;-87
2021/01/25 11:33:16;;;;;;;12.95;9.30;;;16.20;71.50;;;;;;6215294;23;20062;-86
2021/01/25 11:35:41;;;;;;;15.70;11.38;;;16.10;71.20;;;;;;6213140;23;20070;-87
2021/01/25 11:38:07;;;;;;;12.18;10.40;;;15.80;71.40;;;;;;6213937;23;19997;-86
2021/01/25 11:40:33;;;;;;;13.23;10.50;;;15.50;72.00;;;;;;6213014;23;20005;-87
2021/01/25 11:42:58;;;;;;;16.25;12.38;;;15.50;72.20;;;;;;6213619;23;20335;-86
2021/01/25 11:45:24;;;;;;;13.75;11.30;;;15.50;71.80;;;;;;6213840;23;20059;-86
2021/01/25 11:47:50;;;;;;;14.43;11.73;;;15.50;72.10;;;;;;6213775;23;20052;-86
2021/01/25 11:50:15;;;;;;;18.13;13.60;;;15.50;72.30;;;;;;6213863;23;20083;-86
2021/01/25 11:52:41;;;;;;;14.60;11.32;;;15.20;73.00;;;;;;6215180;23;20419;-86
2021/01/25 11:55:07;;;;;;;12.98;10.40;;;15.10;73.70;;;;;;6213307;23;20004;-87
2021/01/25 11:57:33;;;;;;;10.85;8.75;;;15.40;74.20;;;;;;6213847;23;20009;-87
2021/01/25 11:59:58;;;;;;;11.20;8.27;;;15.70;73.70;;;;;;6213945;23;20004;-87
2021/01/25 12:02:24;;;;;;;10.32;7.68;;;15.90;71.80;;;;;;6213544;23;20042;-86
2021/01/25 12:04:50;;;;;;;11.65;8.35;;;15.60;70.30;;;;;;6214881;23;20015;-86
2021/01/25 12:07:18;;;;;;;11.02;7.93;;;15.50;71.40;;;;;;6213117;23;20096;-86
2021/01/25 12:09:44;;;;;;;10.23;7.40;;;15.50;70.80;;;;;;6214837;23;20012;-86
2021/01/25 12:12:10;;;;;;;11.45;7.75;;;15.50;72.10;;;;;;6213540;23;20031;-87
2021/01/25 12:14:35;;;;;;;11.18;7.18;;;15.40;71.40;;;;;;6213569;23;20430;-86
2021/01/25 12:17:01;;;;;;;9.38;6.43;;;15.30;71.00;;;;;;6214906;23;20087;-84
2021/01/25 12:19:26;;;;;;;9.55;6.65;;;15.20;71.30;;;;;;6213192;23;20025;-86
2021/01/25 12:21:54;;;;;;;9.18;6.22;;;15.40;70.80;;;;;;6213393;23;20049;-85
2021/01/25 12:24:20;;;;;;;8.25;5.75;;;15.30;70.00;;;;;;6215409;23;20001;-86
2021/01/25 12:26:46;;;;;;;8.20;5.68;;;14.40;71.40;;;;;;6213289;23;20492;-88
2021/01/25 12:29:11;;;;;;;8.85;6.47;;;13.00;73.30;;;;;;6213726;23;20062;-87
2021/01/25 12:31:37;;;;;;;9.23;6.25;;;11.70;78.00;;;;;;6213498;23;20005;-86
2021/01/25 12:34:03;;;;;;;9.05;6.05;;;10.50;81.60;;;;;;6213138;23;20031;-88
2021/01/25 12:36:28;;;;;;;8.15;5.57;;;9.80;84.20;;;;;;6213405;23;20059;-86